Aérodrome :







RETROUVEZ-NOUS SUR...

 
LOGIN :

S'inscrire | Disclaimer

   EN    FR    IT 

 









Légende :    VFR   VFR Marginal   IFR   IFR Intensif   IFR Très Intensif
Visi : 
Plafond : 
>= 8 km
>= 3000ft
5 à 8 km
1000 à 3000 ft
1500m à 5 km
500 à 1000 ft
800 à 1500m
200 à 500 ft
< 800m
< 200 ft
Symboles :   Orages  Brouillard  Fortes neiges  Fortes précipitations  Vent > 20 kt






- Altitude de l'aérodrome : 244 ft


KSFM - Sanford Regional

DERNIER METAR :
  • 150256Z AUTO 21007KT 10SM OVC004 13/13 A2907 RMK AO2 RAE07B29E42 SLP846 6//// T01280128 58022 PNO $

METARs EXPIRÉS :
  • 150217Z AUTO VRB05KT 10SM OVC002 12/12 A2908 RMK AO2 RAE07 PNO $
  • 150207Z AUTO 17005KT 1SM BR OVC002 11/11 A2908 RMK AO2 RAE07 PNO $
  • 150156Z AUTO 00000KT 1/2SM -RA FG OVC002 08/08 A2909 RMK AO2 RAE17B37 SLP854 T00780078 PNO $
  • 150056Z AUTO 00000KT 1/4SM -RA FG OVC002 07/07 A2913 RMK AO2 SLP868 T00720072 PNO $
  • 150024Z AUTO 00000KT 1/2SM FG BKN002 07/07 A2915 RMK AO2 RAE15 PNO $

TAF N/A



MET'MAP, la Météo Aéronautique d'un coup d'oeil ! - Copyright ORBIFLY Décembre 2007 - Disclaimer

ORBIFLY MET'MAP TEAM :

Programmation & Développement : Alexandra Zaïnal
Sur une idée originale de : Baudouin d'Aumeries
Assistance à la programmation : Marc-Olivier Méhu
Soutien technique & logistique : Manuel Goepfert

Contact : metmap@orbifly.com




SOURCES & CREDITS :

   NOAA